To NAV CANADA Home Page Login to a new session Search on AWWS site Disclaimer Vers la page française équivalente Tips FAQ What's new on the site To the Forecasts and Observations / NOTAM section To "File a Flight Plan" website Publications and other links Update of the User's profile FIC Telephone Numbers My Weather Data Folder Route Weather Data Regional Weather Data Local Weather Data To the Forecasts and Observations / NOTAM section
Request Generated 11/13/2018 at 18:40:15 UTC . Weather information available at that time is displayed.

METAR/TAF

THUNDER BAY/ON    (show WxCam)

METAR CYQT 131800Z 24006KT 210V300 15SM -SN OVC040 M08/M14 A3031 RMK SC8 SLP283=
SPECI CYQT 131735Z 29009KT 240V310 20SM -SN SCT035 BKN060 OVC070 M08/M15 A3032 RMK SC4SC2AC2 SLP287=
METAR CYQT 131700Z 27011KT 20SM FEW020 BKN060 M09/M17 A3033 RMK SC1SC7 SC TR SLP291=
METAR CYQT 131600Z 24005KT 220V280 20SM FEW020 BKN060 M09/M14 A3035 RMK SC1SC7 SC TR SLP295=

TAF CYQT 131338Z 1314/1402 25005KT P6SM -SN BKN040
BECMG 1316/1318 28012KT
RMK NXT FCST BY 132000Z=
Your time UTC time
Weather data provided by Environment Canada and NAV CANADA